Bear Grove, Illinois
Current Conditions -  °F | °C
As of 4:55 AM on Friday 28 Nov 2014 (Local Time) from KENL Reporting Station
Clear Clear  
Wind Chill: 16°   Ceiling: Unl
Heat Index: 24°   Visibility: 10mi
Dew Point: 19°   Wind: 7mph
Humidity: 84%   Direction: 130°SE
Pressure: 30.36"   Gusts: NA
Location:  38.8752°N, 89.1076°W
Report Text: KENL 281055Z AUTO 13006KT 10SM CLR M05/M07 A3036 RMK AO2 T10461070
Loading
Personal Weather Stations






























Interactive Weather Map New forecast layout! Learn more

10-Day Weather Forecast

Advertisements
Track Severe Weather on mobile